createdAt,value
2018-09-21T00:00:02.856Z,0.00
2018-09-21T00:01:02.719Z,0.00
2018-09-21T00:02:02.461Z,0.00
2018-09-21T00:03:02.437Z,0.00
2018-09-21T00:04:02.530Z,0.00
2018-09-21T00:05:02.414Z,0.00
2018-09-21T00:06:02.528Z,0.00
2018-09-21T00:07:02.515Z,0.00
2018-09-21T00:08:02.487Z,0.00
2018-09-21T00:09:02.374Z,0.00
2018-09-21T00:10:02.358Z,0.00
2018-09-21T00:11:02.365Z,0.00
2018-09-21T00:12:02.368Z,0.00
2018-09-21T00:13:02.436Z,0.00
2018-09-21T00:14:02.317Z,0.00
2018-09-21T00:15:02.422Z,0.00
2018-09-21T00:16:02.298Z,0.00
2018-09-21T00:17:02.310Z,0.00
2018-09-21T00:18:02.293Z,0.00
2018-09-21T00:19:02.280Z,0.00
2018-09-21T00:20:02.379Z,0.00
2018-09-21T00:21:02.242Z,0.00
2018-09-21T00:22:02.232Z,0.00
2018-09-21T00:23:02.345Z,0.00
2018-09-21T00:24:02.480Z,0.00
2018-09-21T00:25:02.204Z,0.00
2018-09-21T00:26:02.191Z,0.00
2018-09-21T00:27:02.443Z,0.00
2018-09-21T00:28:02.170Z,0.00
2018-09-21T00:29:02.211Z,0.00
2018-09-21T00:30:02.273Z,0.00
2018-09-21T00:31:02.527Z,0.00
2018-09-21T00:32:02.252Z,0.00
2018-09-21T00:33:02.130Z,0.00
2018-09-21T00:34:02.239Z,0.00
2018-09-21T00:35:02.201Z,0.00
2018-09-21T00:36:02.086Z,0.00
2018-09-21T00:37:02.350Z,0.00
2018-09-21T00:38:02.099Z,0.00
2018-09-21T00:39:02.058Z,0.00
2018-09-21T00:40:02.044Z,0.00
2018-09-21T00:41:02.158Z,0.00
2018-09-21T00:42:02.023Z,0.00
2018-09-21T00:43:02.027Z,0.00
2018-09-21T00:44:02.008Z,0.00
2018-09-21T00:45:01.995Z,0.00
2018-09-21T00:46:01.977Z,0.00
2018-09-21T00:47:01.970Z,0.00
2018-09-21T00:48:01.984Z,0.00
2018-09-21T00:49:01.997Z,0.00
2018-09-21T00:50:01.939Z,0.00
2018-09-21T00:51:01.933Z,0.00
2018-09-21T00:52:01.925Z,0.00
2018-09-21T00:53:02.179Z,0.00
2018-09-21T00:54:01.900Z,0.00
2018-09-21T00:55:01.889Z,0.00
2018-09-21T00:56:02.530Z,0.00
2018-09-21T00:57:01.863Z,0.00
2018-09-21T00:58:01.908Z,0.00
2018-09-21T00:59:01.848Z,0.00
2018-09-21T01:00:01.832Z,0.00
2018-09-21T01:01:01.818Z,0.00
2018-09-21T01:02:01.811Z,0.00
2018-09-21T01:03:01.933Z,0.00
2018-09-21T01:04:01.919Z,0.00
2018-09-21T01:05:02.043Z,0.00
2018-09-21T01:06:02.039Z,0.00
2018-09-21T01:07:01.860Z,0.00
2018-09-21T01:08:01.764Z,0.00
2018-09-21T01:09:01.739Z,0.00
2018-09-21T01:10:01.739Z,0.00
2018-09-21T01:11:01.849Z,0.00
2018-09-21T01:12:01.960Z,0.00
2018-09-21T01:13:01.820Z,0.00
2018-09-21T01:14:01.806Z,0.00
2018-09-21T01:15:01.810Z,0.00
2018-09-21T01:16:01.678Z,0.00
2018-09-21T01:17:01.656Z,0.00
2018-09-21T01:18:01.652Z,0.00
2018-09-21T01:19:01.749Z,0.00
2018-09-21T01:20:01.671Z,0.00
2018-09-21T01:21:01.610Z,0.00
2018-09-21T01:22:01.704Z,0.00
2018-09-21T01:23:01.602Z,0.00
2018-09-21T01:24:01.697Z,0.00
2018-09-21T01:25:01.567Z,0.00
2018-09-21T01:26:01.563Z,0.00
2018-09-21T01:27:01.813Z,0.00
2018-09-21T01:28:01.548Z,0.00
2018-09-21T01:29:01.526Z,0.00
2018-09-21T01:30:01.638Z,0.00
2018-09-21T01:31:01.507Z,0.00
2018-09-21T01:32:01.594Z,0.00
2018-09-21T01:33:01.613Z,0.00
2018-09-21T01:34:01.865Z,0.00
2018-09-21T01:35:01.463Z,0.00
2018-09-21T01:36:01.559Z,0.00
2018-09-21T01:37:01.437Z,0.00
2018-09-21T01:38:01.522Z,0.00
2018-09-21T01:39:01.421Z,0.00
2018-09-21T01:40:01.420Z,0.00
2018-09-21T01:41:01.408Z,0.00
2018-09-21T01:42:01.383Z,0.00
2018-09-21T01:43:01.391Z,0.00
2018-09-21T01:44:01.491Z,0.00
2018-09-21T01:45:03.038Z,0.00
2018-09-21T01:46:01.359Z,0.00
2018-09-21T01:47:01.668Z,0.00
2018-09-21T01:48:01.322Z,0.00
2018-09-21T01:49:01.347Z,0.00
2018-09-21T01:50:01.304Z,0.00
2018-09-21T01:51:01.288Z,0.00
2018-09-21T01:52:01.543Z,0.00
2018-09-21T01:53:01.283Z,0.00
2018-09-21T01:54:01.275Z,0.00
2018-09-21T01:55:01.255Z,0.00
2018-09-21T01:56:01.345Z,0.00
2018-09-21T01:57:01.231Z,0.00
2018-09-21T01:58:01.228Z,0.00
2018-09-21T01:59:01.505Z,0.00
2018-09-21T02:00:01.199Z,0.00
2018-09-21T02:01:01.572Z,0.00
2018-09-21T02:02:01.176Z,0.00
2018-09-21T02:03:01.497Z,0.00
2018-09-21T02:04:01.180Z,0.00
2018-09-21T02:05:01.150Z,0.00
2018-09-21T02:06:01.131Z,0.00
2018-09-21T02:07:01.264Z,0.00
2018-09-21T02:08:01.223Z,0.00
2018-09-21T02:09:01.118Z,0.00
2018-09-21T02:10:01.091Z,0.00
2018-09-21T02:11:01.083Z,0.00
2018-09-21T02:12:01.331Z,0.00
2018-09-21T02:13:01.179Z,0.00
2018-09-21T02:14:01.062Z,0.00
2018-09-21T02:15:01.411Z,0.00
2018-09-21T02:16:01.025Z,0.00
2018-09-21T02:17:01.124Z,0.00
2018-09-21T02:18:01.136Z,0.00
2018-09-21T02:19:01.011Z,0.00
2018-09-21T02:20:00.990Z,0.00
2018-09-21T02:21:00.977Z,0.00
2018-09-21T02:22:01.066Z,0.00
2018-09-21T02:23:01.327Z,0.00
2018-09-21T02:24:01.221Z,0.00
2018-09-21T02:25:01.216Z,0.00
2018-09-21T02:26:00.922Z,0.00
2018-09-21T02:27:01.299Z,0.00
2018-09-21T02:28:00.900Z,0.00
2018-09-21T02:29:01.015Z,0.00
2018-09-21T02:30:00.984Z,0.00
2018-09-21T02:31:01.318Z,0.00
2018-09-21T02:32:01.122Z,0.00
2018-09-21T02:33:00.850Z,0.00
2018-09-21T02:34:00.856Z,0.00
2018-09-21T02:35:00.941Z,0.00
2018-09-21T02:36:00.820Z,0.00
2018-09-21T02:37:00.805Z,0.00
2018-09-21T02:38:00.795Z,0.00
2018-09-21T02:39:00.805Z,0.00
2018-09-21T02:40:00.782Z,0.00
2018-09-21T02:41:00.762Z,0.00
2018-09-21T02:42:00.754Z,0.00
2018-09-21T02:43:00.739Z,0.00
2018-09-21T02:44:00.758Z,0.00
2018-09-21T02:45:00.734Z,0.00
2018-09-21T02:46:00.709Z,0.00
2018-09-21T02:47:00.700Z,0.00
2018-09-21T02:48:00.761Z,0.00
2018-09-21T02:49:00.708Z,0.00
2018-09-21T02:50:00.673Z,0.00
2018-09-21T02:51:00.655Z,0.00
2018-09-21T02:52:00.642Z,0.00
2018-09-21T02:53:00.633Z,0.00
2018-09-21T02:54:00.899Z,0.00
2018-09-21T02:55:00.624Z,0.00
2018-09-21T02:56:00.602Z,0.00
2018-09-21T02:57:00.606Z,0.00
2018-09-21T02:58:00.687Z,0.00
2018-09-21T02:59:00.587Z,0.00
2018-09-21T03:00:01.084Z,0.00
2018-09-21T03:01:01.814Z,0.00
2018-09-21T03:02:00.554Z,0.00
2018-09-21T03:03:00.529Z,0.00
2018-09-21T03:04:00.533Z,0.00
2018-09-21T03:05:00.510Z,0.00
2018-09-21T03:06:00.505Z,0.00
2018-09-21T03:07:00.489Z,0.00
2018-09-21T03:08:00.597Z,0.00
2018-09-21T03:09:00.479Z,0.00
2018-09-21T03:10:00.456Z,0.00
2018-09-21T03:11:00.446Z,0.00
2018-09-21T03:12:00.513Z,0.00
2018-09-21T03:13:00.464Z,0.00
2018-09-21T03:14:00.440Z,0.00
2018-09-21T03:15:01.059Z,0.00
2018-09-21T03:16:00.510Z,0.00
2018-09-21T03:17:00.380Z,0.00
2018-09-21T03:18:00.370Z,0.00
2018-09-21T03:19:00.875Z,0.00
2018-09-21T03:20:00.454Z,0.00
2018-09-21T03:21:00.602Z,0.00
2018-09-21T03:22:00.328Z,0.00
2018-09-21T03:23:00.317Z,0.00
2018-09-21T03:24:00.594Z,0.00
2018-09-21T03:25:00.313Z,0.00
2018-09-21T03:26:00.289Z,0.00
2018-09-21T03:27:00.340Z,0.00
2018-09-21T03:28:00.288Z,0.00
2018-09-21T03:29:00.269Z,0.00
2018-09-21T03:30:00.353Z,0.00
2018-09-21T03:31:00.263Z,0.00
2018-09-21T03:32:00.540Z,0.00
2018-09-21T03:33:00.211Z,0.00
2018-09-21T03:34:00.217Z,0.00
2018-09-21T03:35:00.199Z,0.00
2018-09-21T03:36:00.185Z,0.00
2018-09-21T03:37:00.307Z,0.00
2018-09-21T03:38:00.159Z,0.00
2018-09-21T03:39:00.167Z,0.00
2018-09-21T03:40:00.262Z,0.00
2018-09-21T03:41:00.128Z,0.00
2018-09-21T03:42:00.182Z,0.00
2018-09-21T03:43:00.174Z,0.00
2018-09-21T03:44:00.107Z,0.00
2018-09-21T03:45:00.347Z,0.00
2018-09-21T03:46:00.189Z,0.00
2018-09-21T03:47:00.062Z,0.00
2018-09-21T03:48:00.315Z,0.00
2018-09-21T03:49:00.048Z,0.00
2018-09-21T03:50:00.049Z,0.00
2018-09-21T03:51:00.032Z,0.00
2018-09-21T03:52:00.010Z,0.00
2018-09-21T03:53:00.000Z,0.00
2018-09-21T03:53:59.990Z,0.00
2018-09-21T03:54:59.995Z,0.00
2018-09-21T03:55:59.989Z,0.00
2018-09-21T03:56:59.953Z,0.00
2018-09-21T03:57:59.945Z,0.00
2018-09-21T03:58:59.934Z,0.00
2018-09-21T03:59:59.944Z,0.00
2018-09-21T04:01:00.354Z,0.00
2018-09-21T04:01:59.903Z,0.00
2018-09-21T04:02:59.908Z,0.00
2018-09-21T04:03:59.886Z,0.00
2018-09-21T04:04:58.872Z,0.00
2018-09-21T04:06:00.051Z,0.00
2018-09-21T04:06:59.961Z,0.00
2018-09-21T04:07:59.940Z,0.00
2018-09-21T04:08:59.843Z,0.00
2018-09-21T04:09:59.818Z,0.00
2018-09-21T04:10:59.822Z,0.00
2018-09-21T04:12:00.072Z,0.00
2018-09-21T04:12:59.783Z,0.00
2018-09-21T04:14:00.168Z,0.00
2018-09-21T04:14:59.768Z,0.00
2018-09-21T04:15:59.818Z,0.00
2018-09-21T04:16:59.743Z,0.00
2018-09-21T04:17:59.875Z,0.00
2018-09-21T04:18:59.728Z,0.00
2018-09-21T04:19:59.971Z,0.00
2018-09-21T04:20:59.728Z,0.00
2018-09-21T04:21:59.693Z,0.00
2018-09-21T04:22:59.758Z,0.00
2018-09-21T04:23:59.677Z,0.00
2018-09-21T04:24:59.656Z,0.00
2018-09-21T04:25:59.688Z,0.00
2018-09-21T04:26:59.754Z,0.00
2018-09-21T04:27:59.625Z,0.00
2018-09-21T04:28:59.618Z,0.00
2018-09-21T04:29:59.609Z,0.00
2018-09-21T04:30:59.608Z,0.00
2018-09-21T04:31:59.591Z,0.00
2018-09-21T04:32:59.598Z,0.00
2018-09-21T04:33:59.564Z,0.00
2018-09-21T04:34:59.612Z,0.00
2018-09-21T04:35:59.888Z,0.00
2018-09-21T04:36:59.631Z,0.00
2018-09-21T04:37:59.784Z,0.00
2018-09-21T04:38:58.513Z,0.00
2018-09-21T04:39:59.665Z,0.00
2018-09-21T04:40:59.515Z,0.00
2018-09-21T04:41:59.500Z,0.00
2018-09-21T04:42:59.468Z,0.00
2018-09-21T04:43:59.581Z,0.00
2018-09-21T04:44:59.458Z,0.00
2018-09-21T04:45:59.452Z,0.00
2018-09-21T04:46:59.427Z,0.00
2018-09-21T04:47:59.413Z,0.00
2018-09-21T04:48:59.403Z,0.00
2018-09-21T04:49:59.397Z,0.00
2018-09-21T04:50:59.655Z,0.00
2018-09-21T04:51:59.376Z,0.00
2018-09-21T04:52:59.369Z,0.00
2018-09-21T04:53:59.355Z,0.00
2018-09-21T04:54:59.582Z,0.00
2018-09-21T04:55:59.448Z,0.00
2018-09-21T04:56:59.319Z,0.00
2018-09-21T04:57:59.375Z,0.00
2018-09-21T04:58:59.324Z,0.00
2018-09-21T04:59:59.285Z,0.00
2018-09-21T05:00:59.293Z,0.00
2018-09-21T05:01:59.274Z,0.00
2018-09-21T05:02:59.256Z,0.00
2018-09-21T05:03:59.256Z,0.00
2018-09-21T05:04:59.232Z,0.00
2018-09-21T05:05:59.402Z,0.00
2018-09-21T05:07:00.266Z,0.00
2018-09-21T05:07:59.262Z,0.00
2018-09-21T05:08:59.253Z,0.00
2018-09-21T05:09:59.194Z,0.00
2018-09-21T05:10:59.293Z,0.00
2018-09-21T05:11:59.168Z,0.00
2018-09-21T05:12:59.203Z,0.00
2018-09-21T05:13:59.409Z,0.00
2018-09-21T05:14:59.146Z,0.00
2018-09-21T05:15:59.205Z,0.00
2018-09-21T05:16:59.229Z,0.00
2018-09-21T05:17:59.359Z,0.00
2018-09-21T05:18:59.084Z,0.00
2018-09-21T05:19:59.156Z,0.00
2018-09-21T05:20:59.328Z,4.00
2018-09-21T05:21:59.062Z,4.00
2018-09-21T05:22:59.305Z,0.00
2018-09-21T05:23:59.135Z,4.00
2018-09-21T05:24:59.145Z,4.00
2018-09-21T05:25:59.013Z,0.00
2018-09-21T05:26:59.104Z,4.00
2018-09-21T05:27:59.017Z,4.00
2018-09-21T05:28:59.261Z,4.00
2018-09-21T05:29:58.995Z,4.00
2018-09-21T05:30:58.960Z,4.00
2018-09-21T05:31:59.227Z,4.00
2018-09-21T05:32:58.947Z,4.00
2018-09-21T05:34:00.380Z,4.00
2018-09-21T05:34:59.000Z,4.00
2018-09-21T05:35:58.906Z,4.00
2018-09-21T05:36:59.567Z,8.00
2018-09-21T05:37:58.887Z,8.00
2018-09-21T05:38:59.021Z,4.00
2018-09-21T05:40:01.337Z,8.00
2018-09-21T05:40:58.853Z,8.00
2018-09-21T05:41:58.846Z,4.00
2018-09-21T05:42:58.854Z,8.00
2018-09-21T05:43:58.845Z,8.00
2018-09-21T05:44:58.931Z,8.00
2018-09-21T05:45:58.802Z,8.00
2018-09-21T05:46:58.804Z,12.00
2018-09-21T05:47:58.818Z,8.00
2018-09-21T05:48:58.771Z,12.00
2018-09-21T05:49:58.770Z,12.00
2018-09-21T05:50:58.769Z,12.00
2018-09-21T05:51:58.942Z,12.00
2018-09-21T05:52:59.119Z,12.00
2018-09-21T05:53:58.871Z,16.00
2018-09-21T05:54:58.973Z,12.00
2018-09-21T05:55:59.123Z,12.00
2018-09-21T05:56:58.982Z,8.00
2018-09-21T05:57:58.685Z,12.00
2018-09-21T05:58:58.777Z,8.00
2018-09-21T05:59:58.667Z,12.00
2018-09-21T06:00:58.706Z,12.00
2018-09-21T06:01:58.731Z,8.00
2018-09-21T06:02:58.765Z,12.00
2018-09-21T06:03:58.730Z,8.00
2018-09-21T06:04:58.866Z,12.00
2018-09-21T06:05:58.601Z,8.00
2018-09-21T06:06:58.575Z,12.00
2018-09-21T06:07:58.736Z,12.00
2018-09-21T06:08:58.563Z,12.00
2018-09-21T06:09:58.549Z,12.00
2018-09-21T06:10:58.551Z,16.00
2018-09-21T06:11:58.592Z,16.00
2018-09-21T06:12:58.541Z,16.00
2018-09-21T06:13:58.590Z,16.00
2018-09-21T06:14:58.507Z,20.00
2018-09-21T06:15:58.484Z,20.00
2018-09-21T06:16:59.028Z,24.00
2018-09-21T06:17:58.465Z,24.00
2018-09-21T06:18:58.459Z,28.00
2018-09-21T06:20:11.756Z,32.00
2018-09-21T06:20:58.440Z,32.00
2018-09-21T06:21:58.445Z,28.00
2018-09-21T06:22:58.431Z,28.00
2018-09-21T06:23:58.404Z,28.00
2018-09-21T06:24:58.653Z,28.00
2018-09-21T06:25:58.517Z,24.00
2018-09-21T06:26:58.372Z,24.00
2018-09-21T06:27:58.384Z,20.00
2018-09-21T06:28:58.474Z,24.00
2018-09-21T06:29:58.334Z,28.00
2018-09-21T06:30:58.327Z,32.00
2018-09-21T06:31:58.388Z,36.00
2018-09-21T06:32:58.705Z,36.00
2018-09-21T06:33:58.291Z,32.00
2018-09-21T06:34:58.550Z,32.00
2018-09-21T06:35:58.282Z,28.00
2018-09-21T06:36:58.284Z,32.00
2018-09-21T06:37:58.304Z,32.00
2018-09-21T06:38:58.874Z,36.00
2018-09-21T06:39:58.532Z,40.00
2018-09-21T06:40:58.532Z,40.00
2018-09-21T06:41:58.218Z,40.00
2018-09-21T06:42:58.213Z,40.00
2018-09-21T06:43:58.458Z,36.00
2018-09-21T06:44:58.192Z,32.00
2018-09-21T06:45:58.195Z,28.00
2018-09-21T06:46:58.153Z,28.00
2018-09-21T06:47:58.160Z,28.00
2018-09-21T06:48:58.156Z,32.00
2018-09-21T06:49:58.188Z,32.00
2018-09-21T06:50:58.645Z,32.00
2018-09-21T06:51:58.104Z,28.00
2018-09-21T06:52:58.103Z,28.00
2018-09-21T06:53:58.082Z,24.00
2018-09-21T06:54:58.080Z,24.00
2018-09-21T06:55:59.508Z,20.00
2018-09-21T06:56:58.089Z,20.00
2018-09-21T06:57:58.042Z,20.00
2018-09-21T06:58:59.225Z,48.00
2018-09-21T06:59:58.027Z,64.00
2018-09-21T07:00:59.007Z,68.00
2018-09-21T07:01:58.284Z,68.00
2018-09-21T07:02:58.255Z,72.00
2018-09-21T07:03:57.992Z,68.00
2018-09-21T07:04:58.219Z,68.00
2018-09-21T07:05:58.106Z,64.00
2018-09-21T07:06:58.021Z,64.00
2018-09-21T07:07:58.208Z,60.00
2018-09-21T07:08:57.934Z,60.00
2018-09-21T07:09:58.237Z,60.00
2018-09-21T07:10:57.957Z,60.00
2018-09-21T07:11:57.941Z,24.00
2018-09-21T07:12:57.878Z,28.00
2018-09-21T07:13:56.871Z,28.00
2018-09-21T07:14:57.085Z,28.00
2018-09-21T07:15:58.012Z,36.00
2018-09-21T07:17:01.166Z,36.00
2018-09-21T07:17:58.330Z,36.00
2018-09-21T07:18:58.521Z,36.00
2018-09-21T07:19:59.097Z,36.00
2018-09-21T07:20:57.837Z,40.00
2018-09-21T07:21:57.935Z,40.00
2018-09-21T07:22:58.033Z,44.00
2018-09-21T07:23:58.039Z,44.00
2018-09-21T07:24:57.886Z,44.00
2018-09-21T07:25:57.776Z,48.00
2018-09-21T07:26:57.779Z,44.00
2018-09-21T07:27:57.851Z,40.00
2018-09-21T07:28:57.988Z,40.00
2018-09-21T07:29:57.718Z,44.00
2018-09-21T07:30:57.730Z,44.00
2018-09-21T07:31:57.694Z,52.00
2018-09-21T07:32:57.720Z,52.00
2018-09-21T07:33:57.725Z,64.00
2018-09-21T07:34:57.791Z,68.00
2018-09-21T07:35:57.658Z,76.00
2018-09-21T07:36:57.907Z,80.00
2018-09-21T07:37:57.638Z,84.00
2018-09-21T07:38:57.989Z,76.00
2018-09-21T07:39:57.610Z,64.00
2018-09-21T07:40:57.590Z,60.00
2018-09-21T07:41:57.659Z,60.00
2018-09-21T07:42:57.672Z,68.00
2018-09-21T07:43:57.729Z,76.00
2018-09-21T07:44:57.880Z,72.00
2018-09-21T07:45:57.585Z,68.00
2018-09-21T07:46:57.528Z,56.00
2018-09-21T07:47:58.139Z,44.00
2018-09-21T07:48:57.556Z,40.00
2018-09-21T07:49:59.270Z,40.00
2018-09-21T07:50:57.805Z,40.00
2018-09-21T07:51:57.474Z,40.00
2018-09-21T07:53:01.898Z,40.00
2018-09-21T07:53:57.452Z,44.00
2018-09-21T07:54:57.457Z,44.00
2018-09-21T07:55:57.623Z,44.00
2018-09-21T07:56:57.552Z,44.00
2018-09-21T07:57:57.486Z,44.00
2018-09-21T07:58:57.411Z,48.00
2018-09-21T07:59:57.396Z,48.00
2018-09-21T08:00:57.415Z,52.00
2018-09-21T08:01:57.498Z,52.00
2018-09-21T08:02:57.354Z,52.00
2018-09-21T08:03:57.661Z,48.00
2018-09-21T08:04:57.386Z,52.00
2018-09-21T08:05:57.741Z,56.00
2018-09-21T08:06:57.584Z,56.00
2018-09-21T08:07:57.439Z,56.00
2018-09-21T08:08:57.290Z,60.00
2018-09-21T08:09:57.296Z,52.00
2018-09-21T08:10:57.331Z,56.00
2018-09-21T08:11:57.266Z,48.00
2018-09-21T08:12:57.461Z,48.00
2018-09-21T08:13:57.413Z,44.00
2018-09-21T08:14:57.238Z,48.00
2018-09-21T08:15:57.234Z,60.00
2018-09-21T08:16:57.202Z,76.00
2018-09-21T08:17:57.206Z,88.00
2018-09-21T08:18:57.295Z,88.00
2018-09-21T08:19:57.323Z,84.00
2018-09-21T08:20:57.546Z,88.00
2018-09-21T08:21:57.294Z,84.00
2018-09-21T08:22:57.532Z,92.00
2018-09-21T08:23:57.259Z,100.00
2018-09-21T08:24:57.339Z,112.00
2018-09-21T08:25:57.277Z,108.00
2018-09-21T08:26:57.093Z,100.00
2018-09-21T08:27:58.373Z,100.00
2018-09-21T08:28:56.259Z,112.00
2018-09-21T08:29:57.072Z,132.00
2018-09-21T08:30:57.203Z,156.00
2018-09-21T08:31:57.055Z,172.00
2018-09-21T08:32:57.036Z,172.00
2018-09-21T08:33:57.485Z,164.00
2018-09-21T08:34:56.095Z,144.00
2018-09-21T08:35:57.781Z,128.00
2018-09-21T08:36:57.500Z,120.00
2018-09-21T08:37:57.029Z,112.00
2018-09-21T08:38:56.967Z,104.00
2018-09-21T08:39:56.995Z,104.00
2018-09-21T08:40:56.965Z,100.00
2018-09-21T08:41:56.947Z,96.00
2018-09-21T08:42:56.963Z,92.00
2018-09-21T08:43:57.046Z,88.00
2018-09-21T08:44:56.925Z,88.00
2018-09-21T08:45:56.916Z,80.00
2018-09-21T08:46:56.999Z,68.00
2018-09-21T08:47:56.941Z,76.00
2018-09-21T08:48:57.220Z,64.00
2018-09-21T08:49:56.858Z,52.00
2018-09-21T08:51:02.443Z,72.00
2018-09-21T08:51:56.923Z,76.00
2018-09-21T08:52:56.887Z,64.00
2018-09-21T08:55:12.746Z,68.00
2018-09-21T08:56:12.478Z,68.00
2018-09-21T08:58:16.284Z,80.00
2018-09-21T08:59:56.663Z,76.00
2018-09-21T09:00:57.412Z,68.00
2018-09-21T09:01:57.488Z,76.00
2018-09-21T09:02:57.739Z,76.00
2018-09-21T09:03:57.381Z,56.00
2018-09-21T09:04:57.396Z,52.00
2018-09-21T09:05:57.499Z,56.00
2018-09-21T09:06:57.360Z,40.00
2018-09-21T09:07:57.349Z,40.00
2018-09-21T09:08:57.323Z,44.00
2018-09-21T09:09:57.320Z,40.00
2018-09-21T09:10:57.578Z,52.00
2018-09-21T09:11:56.313Z,56.00
2018-09-21T09:12:57.565Z,52.00
2018-09-21T09:13:57.757Z,40.00
2018-09-21T09:14:57.304Z,36.00
2018-09-21T09:15:57.252Z,44.00
2018-09-21T09:16:57.252Z,44.00
2018-09-21T09:17:57.576Z,52.00
2018-09-21T09:18:57.219Z,40.00
2018-09-21T09:19:57.473Z,44.00
2018-09-21T09:20:58.739Z,48.00
2018-09-21T09:21:57.209Z,48.00
2018-09-21T09:22:57.190Z,52.00
2018-09-21T09:23:56.265Z,52.00
2018-09-21T09:24:57.184Z,44.00
2018-09-21T09:25:57.209Z,32.00
2018-09-21T09:26:57.145Z,36.00
2018-09-21T09:27:57.146Z,36.00
2018-09-21T09:28:57.186Z,32.00
2018-09-21T09:29:57.158Z,24.00
2018-09-21T09:30:57.221Z,28.00
2018-09-21T09:31:57.519Z,40.00
2018-09-21T09:32:57.230Z,44.00
2018-09-21T09:33:57.070Z,52.00
2018-09-21T09:34:57.371Z,72.00
2018-09-21T09:35:57.049Z,96.00
2018-09-21T09:36:57.214Z,108.00
2018-09-21T09:37:57.046Z,120.00
2018-09-21T09:38:57.022Z,116.00
2018-09-21T09:39:57.011Z,112.00
2018-09-21T09:40:57.252Z,108.00
2018-09-21T09:41:56.997Z,76.00
2018-09-21T09:42:57.421Z,72.00
2018-09-21T09:43:56.969Z,96.00
2018-09-21T09:44:56.949Z,92.00
2018-09-21T09:45:56.950Z,76.00
2018-09-21T09:46:57.217Z,76.00
2018-09-21T09:47:56.946Z,72.00
2018-09-21T09:48:57.154Z,88.00
2018-09-21T09:49:56.905Z,108.00
2018-09-21T09:50:56.896Z,88.00
2018-09-21T09:51:56.873Z,88.00
2018-09-21T09:52:56.883Z,92.00
2018-09-21T09:53:57.118Z,84.00
2018-09-21T09:54:56.936Z,84.00
2018-09-21T09:55:57.100Z,92.00
2018-09-21T09:56:56.884Z,84.00
2018-09-21T09:57:57.092Z,76.00
2018-09-21T09:58:56.998Z,72.00
2018-09-21T09:59:56.785Z,64.00
2018-09-21T10:00:56.775Z,56.00
2018-09-21T10:01:56.823Z,40.00
2018-09-21T10:02:56.772Z,36.00
2018-09-21T10:03:57.054Z,32.00
2018-09-21T10:04:57.030Z,32.00
2018-09-21T10:05:56.869Z,32.00
2018-09-21T10:06:56.713Z,36.00
2018-09-21T10:07:56.718Z,44.00
2018-09-21T10:08:56.977Z,64.00
2018-09-21T10:09:56.690Z,68.00
2018-09-21T10:10:56.826Z,64.00
2018-09-21T10:11:56.719Z,56.00
2018-09-21T10:12:56.662Z,60.00
2018-09-21T10:13:56.644Z,60.00
2018-09-21T10:14:58.838Z,52.00
2018-09-21T10:15:57.620Z,52.00
2018-09-21T10:16:56.912Z,48.00
2018-09-21T10:17:56.634Z,48.00
2018-09-21T10:18:56.591Z,52.00
2018-09-21T10:19:56.844Z,64.00
2018-09-21T10:20:56.587Z,68.00
2018-09-21T10:21:56.554Z,64.00
2018-09-21T10:22:56.561Z,64.00
2018-09-21T10:23:56.558Z,72.00
2018-09-21T10:24:57.213Z,72.00
2018-09-21T10:25:56.517Z,80.00
2018-09-21T10:26:57.034Z,84.00
2018-09-21T10:27:56.998Z,80.00
2018-09-21T10:28:56.636Z,80.00
2018-09-21T10:29:56.575Z,72.00
2018-09-21T10:30:56.462Z,64.00
2018-09-21T10:31:56.739Z,68.00
2018-09-21T10:32:56.437Z,68.00
2018-09-21T10:33:56.520Z,76.00
2018-09-21T10:34:56.535Z,80.00
2018-09-21T10:35:56.484Z,80.00
2018-09-21T10:36:56.431Z,88.00
2018-09-21T10:37:56.459Z,92.00
2018-09-21T10:38:56.540Z,92.00
2018-09-21T10:39:56.427Z,80.00
2018-09-21T10:40:56.406Z,68.00
2018-09-21T10:41:56.414Z,64.00
2018-09-21T10:42:56.494Z,60.00
2018-09-21T10:43:56.340Z,64.00
2018-09-21T10:44:56.365Z,56.00
2018-09-21T10:45:56.345Z,56.00
2018-09-21T10:46:56.435Z,56.00
2018-09-21T10:47:56.364Z,64.00
2018-09-21T10:48:56.363Z,76.00
2018-09-21T10:49:57.660Z,84.00
2018-09-21T10:50:59.349Z,96.00
2018-09-21T10:51:57.237Z,112.00
2018-09-21T10:52:56.239Z,112.00
2018-09-21T10:53:56.352Z,100.00
2018-09-21T10:54:56.253Z,112.00
2018-09-21T10:55:56.334Z,100.00
2018-09-21T10:56:56.663Z,80.00
2018-09-21T10:57:56.240Z,72.00
2018-09-21T10:58:56.172Z,76.00
2018-09-21T10:59:56.645Z,80.00
2018-09-21T11:00:56.410Z,80.00
2018-09-21T11:01:56.127Z,76.00
2018-09-21T11:02:57.030Z,76.00
2018-09-21T11:03:56.433Z,76.00
2018-09-21T11:04:56.185Z,72.00
2018-09-21T11:05:56.090Z,68.00
2018-09-21T11:06:56.085Z,72.00
2018-09-21T11:07:56.066Z,72.00
2018-09-21T11:08:56.063Z,72.00
2018-09-21T11:09:56.172Z,72.00
2018-09-21T11:10:56.435Z,68.00
2018-09-21T11:11:56.047Z,64.00
2018-09-21T11:12:56.066Z,68.00
2018-09-21T11:13:56.013Z,68.00
2018-09-21T11:14:56.044Z,60.00
2018-09-21T11:15:55.981Z,56.00
2018-09-21T11:16:56.144Z,60.00
2018-09-21T11:17:55.955Z,64.00
2018-09-21T11:18:56.841Z,64.00
2018-09-21T11:19:55.945Z,68.00
2018-09-21T11:20:55.981Z,80.00
2018-09-21T11:21:55.935Z,84.00
2018-09-21T11:22:55.934Z,84.00
2018-09-21T11:23:58.446Z,84.00
2018-09-21T11:24:55.889Z,84.00
2018-09-21T11:25:56.363Z,92.00
2018-09-21T11:26:54.879Z,104.00
2018-09-21T11:27:55.855Z,100.00
2018-09-21T11:28:57.358Z,96.00
2018-09-21T11:29:56.124Z,100.00
2018-09-21T11:31:03.336Z,104.00
2018-09-21T11:31:55.809Z,112.00
2018-09-21T11:32:55.823Z,100.00
2018-09-21T11:33:55.874Z,84.00
2018-09-21T11:34:55.789Z,80.00
2018-09-21T11:35:55.877Z,72.00
2018-09-21T11:36:55.855Z,60.00
2018-09-21T11:37:56.287Z,56.00
2018-09-21T11:38:55.733Z,52.00
2018-09-21T11:39:55.731Z,60.00
2018-09-21T11:40:56.741Z,64.00
2018-09-21T11:41:55.894Z,64.00
2018-09-21T11:42:55.824Z,72.00
2018-09-21T11:43:56.834Z,80.00
2018-09-21T11:44:55.682Z,84.00
2018-09-21T11:45:56.047Z,84.00
2018-09-21T11:46:55.811Z,96.00
2018-09-21T11:47:55.782Z,112.00
2018-09-21T11:48:55.755Z,120.00
2018-09-21T11:49:55.970Z,116.00
2018-09-21T11:50:55.679Z,124.00
2018-09-21T11:51:55.858Z,120.00
2018-09-21T11:52:55.766Z,120.00
2018-09-21T11:53:56.295Z,112.00
2018-09-21T11:54:55.573Z,120.00
2018-09-21T11:55:55.674Z,144.00
2018-09-21T11:56:55.806Z,152.00
2018-09-21T11:57:55.529Z,168.00
2018-09-21T11:58:56.923Z,156.00
2018-09-21T11:59:55.521Z,136.00
2018-09-21T12:00:55.502Z,136.00
2018-09-21T12:01:55.826Z,148.00
2018-09-21T12:02:55.865Z,160.00
2018-09-21T12:03:55.583Z,184.00
2018-09-21T12:04:55.616Z,204.00
2018-09-21T12:05:55.543Z,160.00
2018-09-21T12:06:55.497Z,172.00
2018-09-21T12:07:55.474Z,180.00
2018-09-21T12:08:56.298Z,180.00
2018-09-21T12:09:55.554Z,160.00
2018-09-21T12:10:55.826Z,156.00
2018-09-21T12:11:55.386Z,152.00
2018-09-21T12:12:55.493Z,144.00
2018-09-21T12:13:55.388Z,152.00
2018-09-21T12:14:55.441Z,148.00
2018-09-21T12:15:55.368Z,156.00
2018-09-21T12:16:55.473Z,176.00
2018-09-21T12:17:55.580Z,204.00
2018-09-21T12:18:55.316Z,184.00
2018-09-21T12:19:57.857Z,188.00
2018-09-21T12:20:55.550Z,224.00
2018-09-21T12:21:55.431Z,268.00
2018-09-21T12:22:55.358Z,248.00
2018-09-21T12:23:57.412Z,232.00
2018-09-21T12:24:55.359Z,244.00
2018-09-21T12:25:57.134Z,236.00
2018-09-21T12:26:55.223Z,232.00
2018-09-21T12:27:55.331Z,212.00
2018-09-21T12:28:55.207Z,200.00
2018-09-21T12:29:57.837Z,216.00
2018-09-21T12:30:55.366Z,240.00
2018-09-21T12:31:55.175Z,224.00
2018-09-21T12:32:55.167Z,216.00
2018-09-21T12:33:55.272Z,184.00
2018-09-21T12:34:55.216Z,164.00
2018-09-21T12:35:55.285Z,140.00
2018-09-21T12:36:55.244Z,128.00
2018-09-21T12:37:55.142Z,96.00
2018-09-21T12:38:55.095Z,76.00
2018-09-21T12:39:55.117Z,108.00
2018-09-21T12:40:55.263Z,132.00
2018-09-21T12:41:55.223Z,116.00
2018-09-21T12:42:55.084Z,76.00
2018-09-21T12:43:55.041Z,52.00
2018-09-21T12:44:55.150Z,48.00
2018-09-21T12:45:55.674Z,44.00
2018-09-21T12:46:55.149Z,36.00
2018-09-21T12:47:55.169Z,24.00
2018-09-21T12:48:55.079Z,24.00
2018-09-21T12:49:55.057Z,20.00
2018-09-21T12:50:55.162Z,20.00
2018-09-21T12:51:55.351Z,20.00
2018-09-21T12:52:54.948Z,28.00
2018-09-21T12:53:55.063Z,32.00
2018-09-21T12:54:54.938Z,44.00
2018-09-21T12:55:54.992Z,68.00
2018-09-21T12:56:55.050Z,104.00
2018-09-21T12:57:55.048Z,160.00
2018-09-21T12:58:55.100Z,188.00
2018-09-21T12:59:54.976Z,204.00
2018-09-21T13:00:54.940Z,200.00
2018-09-21T13:01:55.079Z,200.00
2018-09-21T13:02:55.253Z,196.00